sensor_id;sensor_type;location;lat;lon;timestamp;temperature;humidity
6018;DHT22;3037;51.068;13.780;2022-12-18T00:02:04;-6.30;99.90
6018;DHT22;3037;51.068;13.780;2022-12-18T00:04:29;-6.30;99.90
6018;DHT22;3037;51.068;13.780;2022-12-18T00:06:55;-6.30;99.90
6018;DHT22;3037;51.068;13.780;2022-12-18T00:09:21;-6.20;99.90
6018;DHT22;3037;51.068;13.780;2022-12-18T00:11:46;-6.60;99.90
6018;DHT22;3037;51.068;13.780;2022-12-18T00:14:13;-6.60;99.90
6018;DHT22;3037;51.068;13.780;2022-12-18T00:16:39;-6.70;99.90
6018;DHT22;3037;51.068;13.780;2022-12-18T00:19:05;-6.60;99.90
6018;DHT22;3037;51.068;13.780;2022-12-18T00:21:32;-6.70;99.90
6018;DHT22;3037;51.068;13.780;2022-12-18T00:23:58;-6.80;99.90
6018;DHT22;3037;51.068;13.780;2022-12-18T00:26:28;-6.60;99.90
6018;DHT22;3037;51.068;13.780;2022-12-18T00:28:54;-6.50;99.90
6018;DHT22;3037;51.068;13.780;2022-12-18T00:31:23;-6.60;99.90
6018;DHT22;3037;51.068;13.780;2022-12-18T00:33:49;-6.60;99.90
6018;DHT22;3037;51.068;13.780;2022-12-18T00:36:20;-6.70;99.90
6018;DHT22;3037;51.068;13.780;2022-12-18T00:38:46;-6.80;99.90
6018;DHT22;3037;51.068;13.780;2022-12-18T00:41:13;-6.90;99.90
6018;DHT22;3037;51.068;13.780;2022-12-18T00:43:59;-6.90;99.90
6018;DHT22;3037;51.068;13.780;2022-12-18T00:46:25;-6.80;99.90
6018;DHT22;3037;51.068;13.780;2022-12-18T00:48:50;-6.80;99.90
6018;DHT22;3037;51.068;13.780;2022-12-18T00:51:16;-6.80;99.90
6018;DHT22;3037;51.068;13.780;2022-12-18T00:53:41;-6.90;99.90
6018;DHT22;3037;51.068;13.780;2022-12-18T00:56:07;-6.90;99.90
6018;DHT22;3037;51.068;13.780;2022-12-18T00:58:32;-7.00;99.90
6018;DHT22;3037;51.068;13.780;2022-12-18T01:00:58;-6.90;99.90
6018;DHT22;3037;51.068;13.780;2022-12-18T01:03:23;-7.00;99.90
6018;DHT22;3037;51.068;13.780;2022-12-18T01:05:49;-7.10;99.90
6018;DHT22;3037;51.068;13.780;2022-12-18T01:08:14;-7.10;99.90
6018;DHT22;3037;51.068;13.780;2022-12-18T01:10:40;-7.00;99.90
6018;DHT22;3037;51.068;13.780;2022-12-18T01:13:06;-7.00;99.90
6018;DHT22;3037;51.068;13.780;2022-12-18T01:15:32;-6.80;99.90
6018;DHT22;3037;51.068;13.780;2022-12-18T01:17:57;-6.80;99.90
6018;DHT22;3037;51.068;13.780;2022-12-18T01:20:23;-7.20;99.90
6018;DHT22;3037;51.068;13.780;2022-12-18T01:22:48;-7.00;99.90
6018;DHT22;3037;51.068;13.780;2022-12-18T01:25:14;-6.90;99.90
6018;DHT22;3037;51.068;13.780;2022-12-18T01:27:40;-7.10;99.90
6018;DHT22;3037;51.068;13.780;2022-12-18T01:30:06;-7.00;99.90
6018;DHT22;3037;51.068;13.780;2022-12-18T01:32:32;-7.10;99.90
6018;DHT22;3037;51.068;13.780;2022-12-18T01:34:57;-7.30;99.90
6018;DHT22;3037;51.068;13.780;2022-12-18T01:37:23;-7.10;99.90
6018;DHT22;3037;51.068;13.780;2022-12-18T01:39:48;-7.10;99.90
6018;DHT22;3037;51.068;13.780;2022-12-18T01:42:15;-7.30;99.90
6018;DHT22;3037;51.068;13.780;2022-12-18T01:45:01;-7.40;99.90
6018;DHT22;3037;51.068;13.780;2022-12-18T01:47:43;-7.20;99.90
6018;DHT22;3037;51.068;13.780;2022-12-18T01:52:46;-7.10;99.90
6018;DHT22;3037;51.068;13.780;2022-12-18T01:55:16;-6.90;99.90
6018;DHT22;3037;51.068;13.780;2022-12-18T01:57:43;-7.00;99.90
6018;DHT22;3037;51.068;13.780;2022-12-18T02:00:12;-7.10;99.90
6018;DHT22;3037;51.068;13.780;2022-12-18T02:02:39;-7.20;99.90
6018;DHT22;3037;51.068;13.780;2022-12-18T02:05:06;-7.10;99.90
6018;DHT22;3037;51.068;13.780;2022-12-18T02:07:43;-7.30;99.90
6018;DHT22;3037;51.068;13.780;2022-12-18T02:15:44;-7.60;99.90
6018;DHT22;3037;51.068;13.780;2022-12-18T02:18:18;-7.70;99.90
6018;DHT22;3037;51.068;13.780;2022-12-18T02:20:49;-7.80;99.90
6018;DHT22;3037;51.068;13.780;2022-12-18T02:23:31;-7.70;99.90
6018;DHT22;3037;51.068;13.780;2022-12-18T02:26:30;-7.50;99.90
6018;DHT22;3037;51.068;13.780;2022-12-18T02:29:02;-7.40;99.90
6018;DHT22;3037;51.068;13.780;2022-12-18T02:31:34;-7.30;99.90
6018;DHT22;3037;51.068;13.780;2022-12-18T02:34:03;-7.40;99.90
6018;DHT22;3037;51.068;13.780;2022-12-18T02:36:32;-7.50;99.90
6018;DHT22;3037;51.068;13.780;2022-12-18T02:39:00;-7.50;99.90
6018;DHT22;3037;51.068;13.780;2022-12-18T02:41:27;-7.60;99.90
6018;DHT22;3037;51.068;13.780;2022-12-18T02:43:58;-7.60;99.90
6018;DHT22;3037;51.068;13.780;2022-12-18T02:46:29;-7.40;99.90
6018;DHT22;3037;51.068;13.780;2022-12-18T02:49:03;-7.70;99.90
6018;DHT22;3037;51.068;13.780;2022-12-18T02:54:26;-7.70;99.90
6018;DHT22;3037;51.068;13.780;2022-12-18T02:56:55;-7.70;99.90
6018;DHT22;3037;51.068;13.780;2022-12-18T02:59:49;-7.80;99.90
6018;DHT22;3037;51.068;13.780;2022-12-18T03:02:26;-7.70;99.90
6018;DHT22;3037;51.068;13.780;2022-12-18T03:10:21;-8.10;99.90
6018;DHT22;3037;51.068;13.780;2022-12-18T03:13:11;-8.10;99.90
6018;DHT22;3037;51.068;13.780;2022-12-18T03:15:44;-8.00;99.90
6018;DHT22;3037;51.068;13.780;2022-12-18T03:19:06;-8.10;99.90
6018;DHT22;3037;51.068;13.780;2022-12-18T03:21:28;-8.10;99.90
6018;DHT22;3037;51.068;13.780;2022-12-18T03:23:54;-8.10;99.90
6018;DHT22;3037;51.068;13.780;2022-12-18T03:26:24;-8.00;99.90
6018;DHT22;3037;51.068;13.780;2022-12-18T03:28:59;-7.80;99.90
6018;DHT22;3037;51.068;13.780;2022-12-18T03:31:28;-8.00;99.90
6018;DHT22;3037;51.068;13.780;2022-12-18T03:33:59;-8.00;99.90
6018;DHT22;3037;51.068;13.780;2022-12-18T03:36:26;-7.90;99.90
6018;DHT22;3037;51.068;13.780;2022-12-18T03:38:52;-7.80;99.90
6018;DHT22;3037;51.068;13.780;2022-12-18T03:42:12;-7.50;99.90
6018;DHT22;3037;51.068;13.780;2022-12-18T03:44:26;-7.50;99.90
6018;DHT22;3037;51.068;13.780;2022-12-18T03:47:07;-7.70;99.90
6018;DHT22;3037;51.068;13.780;2022-12-18T03:52:16;-7.80;99.90
6018;DHT22;3037;51.068;13.780;2022-12-18T03:54:45;-7.80;99.90
6018;DHT22;3037;51.068;13.780;2022-12-18T03:57:17;-7.40;99.90
6018;DHT22;3037;51.068;13.780;2022-12-18T03:59:45;-7.20;99.90
6018;DHT22;3037;51.068;13.780;2022-12-18T04:02:13;-7.60;99.90
6018;DHT22;3037;51.068;13.780;2022-12-18T04:04:42;-7.70;99.90
6018;DHT22;3037;51.068;13.780;2022-12-18T04:07:08;-7.70;99.90
6018;DHT22;3037;51.068;13.780;2022-12-18T04:09:35;-7.90;99.90
6018;DHT22;3037;51.068;13.780;2022-12-18T04:12:02;-7.80;99.90
6018;DHT22;3037;51.068;13.780;2022-12-18T04:14:27;-7.70;99.90
6018;DHT22;3037;51.068;13.780;2022-12-18T04:16:53;-7.80;99.90
6018;DHT22;3037;51.068;13.780;2022-12-18T04:19:18;-7.90;99.90
6018;DHT22;3037;51.068;13.780;2022-12-18T04:21:44;-8.10;99.90
6018;DHT22;3037;51.068;13.780;2022-12-18T04:24:09;-8.10;99.90
6018;DHT22;3037;51.068;13.780;2022-12-18T04:26:35;-8.10;99.90
6018;DHT22;3037;51.068;13.780;2022-12-18T04:29:01;-8.10;99.90
6018;DHT22;3037;51.068;13.780;2022-12-18T04:31:27;-8.00;99.90
6018;DHT22;3037;51.068;13.780;2022-12-18T04:33:52;-8.00;99.90
6018;DHT22;3037;51.068;13.780;2022-12-18T04:36:18;-7.70;99.90
6018;DHT22;3037;51.068;13.780;2022-12-18T04:38:43;-8.10;99.90
6018;DHT22;3037;51.068;13.780;2022-12-18T04:41:09;-8.20;99.90
6018;DHT22;3037;51.068;13.780;2022-12-18T04:43:35;-8.10;99.90
6018;DHT22;3037;51.068;13.780;2022-12-18T04:46:04;-8.00;99.90
6018;DHT22;3037;51.068;13.780;2022-12-18T04:48:31;-8.20;99.90
6018;DHT22;3037;51.068;13.780;2022-12-18T04:50:56;-8.10;99.90
6018;DHT22;3037;51.068;13.780;2022-12-18T04:53:22;-8.00;99.90
6018;DHT22;3037;51.068;13.780;2022-12-18T04:55:47;-7.90;99.90
6018;DHT22;3037;51.068;13.780;2022-12-18T04:58:13;-8.20;99.90
6018;DHT22;3037;51.068;13.780;2022-12-18T05:00:38;-8.20;99.90
6018;DHT22;3037;51.068;13.780;2022-12-18T05:03:04;-8.10;99.90
6018;DHT22;3037;51.068;13.780;2022-12-18T05:05:30;-8.40;99.90
6018;DHT22;3037;51.068;13.780;2022-12-18T05:07:55;-8.30;99.90
6018;DHT22;3037;51.068;13.780;2022-12-18T05:10:21;-8.10;99.90
6018;DHT22;3037;51.068;13.780;2022-12-18T05:12:47;-8.20;99.90
6018;DHT22;3037;51.068;13.780;2022-12-18T05:15:31;-8.40;99.90
6018;DHT22;3037;51.068;13.780;2022-12-18T05:17:57;-8.30;99.90
6018;DHT22;3037;51.068;13.780;2022-12-18T05:20:24;-8.30;99.90
6018;DHT22;3037;51.068;13.780;2022-12-18T05:22:51;-8.40;99.90
6018;DHT22;3037;51.068;13.780;2022-12-18T05:25:16;-8.50;99.90
6018;DHT22;3037;51.068;13.780;2022-12-18T05:27:42;-8.60;99.90
6018;DHT22;3037;51.068;13.780;2022-12-18T05:30:09;-8.60;99.90
6018;DHT22;3037;51.068;13.780;2022-12-18T05:32:34;-8.50;99.90
6018;DHT22;3037;51.068;13.780;2022-12-18T05:35:00;-8.40;99.90
6018;DHT22;3037;51.068;13.780;2022-12-18T05:37:25;-8.20;99.90
6018;DHT22;3037;51.068;13.780;2022-12-18T05:39:51;-8.30;99.90
6018;DHT22;3037;51.068;13.780;2022-12-18T05:42:16;-8.30;99.90
6018;DHT22;3037;51.068;13.780;2022-12-18T05:44:43;-8.20;99.90
6018;DHT22;3037;51.068;13.780;2022-12-18T05:47:09;-8.20;99.90
6018;DHT22;3037;51.068;13.780;2022-12-18T05:49:34;-8.20;99.90
6018;DHT22;3037;51.068;13.780;2022-12-18T05:52:00;-8.20;99.90
6018;DHT22;3037;51.068;13.780;2022-12-18T05:54:27;-8.10;99.90
6018;DHT22;3037;51.068;13.780;2022-12-18T05:56:53;-8.40;99.90
6018;DHT22;3037;51.068;13.780;2022-12-18T05:59:19;-8.40;99.90
6018;DHT22;3037;51.068;13.780;2022-12-18T06:01:45;-8.00;99.90
6018;DHT22;3037;51.068;13.780;2022-12-18T06:04:10;-8.30;99.90
6018;DHT22;3037;51.068;13.780;2022-12-18T06:06:36;-8.40;99.90
6018;DHT22;3037;51.068;13.780;2022-12-18T06:09:03;-8.50;99.90
6018;DHT22;3037;51.068;13.780;2022-12-18T06:11:35;-8.50;99.90
6018;DHT22;3037;51.068;13.780;2022-12-18T06:14:01;-8.40;99.90
6018;DHT22;3037;51.068;13.780;2022-12-18T06:16:28;-8.50;99.90
6018;DHT22;3037;51.068;13.780;2022-12-18T06:18:59;-8.60;99.90
6018;DHT22;3037;51.068;13.780;2022-12-18T06:21:25;-8.60;99.90
6018;DHT22;3037;51.068;13.780;2022-12-18T06:23:51;-8.60;99.90
6018;DHT22;3037;51.068;13.780;2022-12-18T06:26:16;-8.60;99.90
6018;DHT22;3037;51.068;13.780;2022-12-18T06:28:42;-8.50;99.90
6018;DHT22;3037;51.068;13.780;2022-12-18T06:31:08;-8.50;99.90
6018;DHT22;3037;51.068;13.780;2022-12-18T06:33:34;-8.60;99.90
6018;DHT22;3037;51.068;13.780;2022-12-18T06:36:09;-8.70;99.90
6018;DHT22;3037;51.068;13.780;2022-12-18T06:38:36;-8.60;99.90
6018;DHT22;3037;51.068;13.780;2022-12-18T06:41:16;-8.60;99.90
6018;DHT22;3037;51.068;13.780;2022-12-18T06:43:43;-8.60;99.90
6018;DHT22;3037;51.068;13.780;2022-12-18T06:46:09;-8.60;99.90
6018;DHT22;3037;51.068;13.780;2022-12-18T06:48:35;-8.80;99.90
6018;DHT22;3037;51.068;13.780;2022-12-18T06:51:01;-8.60;99.90
6018;DHT22;3037;51.068;13.780;2022-12-18T06:53:27;-8.60;99.90
6018;DHT22;3037;51.068;13.780;2022-12-18T06:55:52;-8.40;99.90
6018;DHT22;3037;51.068;13.780;2022-12-18T06:58:18;-8.50;99.90
6018;DHT22;3037;51.068;13.780;2022-12-18T07:00:44;-8.40;99.90
6018;DHT22;3037;51.068;13.780;2022-12-18T07:03:09;-7.80;99.90
6018;DHT22;3037;51.068;13.780;2022-12-18T07:05:40;-8.00;99.90
6018;DHT22;3037;51.068;13.780;2022-12-18T07:08:06;-8.10;99.90
6018;DHT22;3037;51.068;13.780;2022-12-18T07:10:31;-8.20;99.90
6018;DHT22;3037;51.068;13.780;2022-12-18T07:12:57;-8.10;99.90
6018;DHT22;3037;51.068;13.780;2022-12-18T07:15:22;-8.10;99.90
6018;DHT22;3037;51.068;13.780;2022-12-18T07:17:48;-8.00;99.90
6018;DHT22;3037;51.068;13.780;2022-12-18T07:20:13;-7.70;99.90
6018;DHT22;3037;51.068;13.780;2022-12-18T07:22:39;-8.00;99.90
6018;DHT22;3037;51.068;13.780;2022-12-18T07:25:05;-7.80;99.90
6018;DHT22;3037;51.068;13.780;2022-12-18T07:27:31;-7.90;99.90
6018;DHT22;3037;51.068;13.780;2022-12-18T07:29:56;-7.90;99.90
6018;DHT22;3037;51.068;13.780;2022-12-18T07:32:22;-8.00;99.90
6018;DHT22;3037;51.068;13.780;2022-12-18T07:34:48;-8.00;99.90
6018;DHT22;3037;51.068;13.780;2022-12-18T07:37:13;-7.90;99.90
6018;DHT22;3037;51.068;13.780;2022-12-18T07:39:39;-7.90;99.90
6018;DHT22;3037;51.068;13.780;2022-12-18T07:42:04;-7.80;99.90
6018;DHT22;3037;51.068;13.780;2022-12-18T07:44:48;-7.70;99.90
6018;DHT22;3037;51.068;13.780;2022-12-18T07:47:14;-7.50;99.90
6018;DHT22;3037;51.068;13.780;2022-12-18T07:49:39;-7.20;99.90
6018;DHT22;3037;51.068;13.780;2022-12-18T07:52:05;-7.50;99.90
6018;DHT22;3037;51.068;13.780;2022-12-18T07:54:30;-7.50;99.90
6018;DHT22;3037;51.068;13.780;2022-12-18T07:56:56;-7.30;99.90
6018;DHT22;3037;51.068;13.780;2022-12-18T07:59:21;-6.90;99.90
6018;DHT22;3037;51.068;13.780;2022-12-18T08:01:47;-4.80;99.90
6018;DHT22;3037;51.068;13.780;2022-12-18T08:04:12;-2.10;99.90
6018;DHT22;3037;51.068;13.780;2022-12-18T08:06:38;-0.40;99.90
6018;DHT22;3037;51.068;13.780;2022-12-18T08:09:04;-0.30;99.90
6018;DHT22;3037;51.068;13.780;2022-12-18T08:11:29;0.30;99.90
6018;DHT22;3037;51.068;13.780;2022-12-18T08:13:55;0.90;99.90
6018;DHT22;3037;51.068;13.780;2022-12-18T08:16:22;1.60;99.90
6018;DHT22;3037;51.068;13.780;2022-12-18T08:18:48;2.20;99.90
6018;DHT22;3037;51.068;13.780;2022-12-18T08:21:16;2.70;99.90
6018;DHT22;3037;51.068;13.780;2022-12-18T08:23:42;2.90;99.90
6018;DHT22;3037;51.068;13.780;2022-12-18T08:26:08;4.00;99.90
6018;DHT22;3037;51.068;13.780;2022-12-18T08:28:34;3.70;99.90
6018;DHT22;3037;51.068;13.780;2022-12-18T08:31:00;3.70;99.90
6018;DHT22;3037;51.068;13.780;2022-12-18T08:33:26;4.40;99.90
6018;DHT22;3037;51.068;13.780;2022-12-18T08:35:52;4.80;99.90
6018;DHT22;3037;51.068;13.780;2022-12-18T08:38:17;4.80;99.90
6018;DHT22;3037;51.068;13.780;2022-12-18T08:40:43;4.90;99.90
6018;DHT22;3037;51.068;13.780;2022-12-18T08:43:10;5.60;99.90
6018;DHT22;3037;51.068;13.780;2022-12-18T08:45:54;6.20;99.90
6018;DHT22;3037;51.068;13.780;2022-12-18T08:48:19;5.80;99.90
6018;DHT22;3037;51.068;13.780;2022-12-18T08:50:57;5.80;99.90
6018;DHT22;3037;51.068;13.780;2022-12-18T08:53:23;5.90;99.90
6018;DHT22;3037;51.068;13.780;2022-12-18T08:55:49;7.50;99.90
6018;DHT22;3037;51.068;13.780;2022-12-18T08:58:15;8.00;99.90
6018;DHT22;3037;51.068;13.780;2022-12-18T09:00:40;8.00;99.90
6018;DHT22;3037;51.068;13.780;2022-12-18T09:03:14;9.60;99.90
6018;DHT22;3037;51.068;13.780;2022-12-18T09:05:40;9.30;99.90
6018;DHT22;3037;51.068;13.780;2022-12-18T09:08:06;8.80;99.90
6018;DHT22;3037;51.068;13.780;2022-12-18T09:10:31;9.50;99.90
6018;DHT22;3037;51.068;13.780;2022-12-18T09:12:57;9.70;99.90
6018;DHT22;3037;51.068;13.780;2022-12-18T09:15:23;8.10;99.90
6018;DHT22;3037;51.068;13.780;2022-12-18T09:17:49;8.60;99.90
6018;DHT22;3037;51.068;13.780;2022-12-18T09:20:15;9.00;99.90
6018;DHT22;3037;51.068;13.780;2022-12-18T09:22:41;9.30;99.90
6018;DHT22;3037;51.068;13.780;2022-12-18T09:25:07;9.30;99.90
6018;DHT22;3037;51.068;13.780;2022-12-18T09:27:34;9.80;99.90
6018;DHT22;3037;51.068;13.780;2022-12-18T09:29:59;10.30;99.90
6018;DHT22;3037;51.068;13.780;2022-12-18T09:32:25;10.60;99.90
6018;DHT22;3037;51.068;13.780;2022-12-18T09:34:51;10.00;99.90
6018;DHT22;3037;51.068;13.780;2022-12-18T09:37:16;10.80;99.90
6018;DHT22;3037;51.068;13.780;2022-12-18T09:39:42;11.00;99.90
6018;DHT22;3037;51.068;13.780;2022-12-18T09:42:17;11.60;99.90
6018;DHT22;3037;51.068;13.780;2022-12-18T09:44:52;10.70;99.90
6018;DHT22;3037;51.068;13.780;2022-12-18T09:50:05;11.50;99.90
6018;DHT22;3037;51.068;13.780;2022-12-18T09:52:41;10.00;99.90
6018;DHT22;3037;51.068;13.780;2022-12-18T09:55:30;9.00;99.90
6018;DHT22;3037;51.068;13.780;2022-12-18T09:58:02;9.00;99.90
6018;DHT22;3037;51.068;13.780;2022-12-18T10:00:30;10.30;99.90
6018;DHT22;3037;51.068;13.780;2022-12-18T10:03:09;10.30;99.90
6018;DHT22;3037;51.068;13.780;2022-12-18T10:08:37;9.60;99.90
6018;DHT22;3037;51.068;13.780;2022-12-18T10:13:49;10.20;99.90
6018;DHT22;3037;51.068;13.780;2022-12-18T10:21:48;9.40;99.90
6018;DHT22;3037;51.068;13.780;2022-12-18T10:24:40;9.70;99.90
6018;DHT22;3037;51.068;13.780;2022-12-18T10:27:16;9.90;99.90
6018;DHT22;3037;51.068;13.780;2022-12-18T10:29:45;9.00;99.90
6018;DHT22;3037;51.068;13.780;2022-12-18T10:32:17;8.30;99.90
6018;DHT22;3037;51.068;13.780;2022-12-18T10:34:48;8.80;99.90
6018;DHT22;3037;51.068;13.780;2022-12-18T10:37:20;9.60;99.90
6018;DHT22;3037;51.068;13.780;2022-12-18T10:39:51;10.40;99.90
6018;DHT22;3037;51.068;13.780;2022-12-18T10:42:29;9.50;99.90
6018;DHT22;3037;51.068;13.780;2022-12-18T10:45:24;7.10;99.90
6018;DHT22;3037;51.068;13.780;2022-12-18T10:47:50;7.70;99.90
6018;DHT22;3037;51.068;13.780;2022-12-18T10:52:57;8.10;99.90
6018;DHT22;3037;51.068;13.780;2022-12-18T10:55:25;8.30;99.90
6018;DHT22;3037;51.068;13.780;2022-12-18T10:57:52;8.50;99.90
6018;DHT22;3037;51.068;13.780;2022-12-18T11:00:27;8.50;99.90
6018;DHT22;3037;51.068;13.780;2022-12-18T11:02:53;7.80;99.90
6018;DHT22;3037;51.068;13.780;2022-12-18T11:07:54;7.30;99.90
6018;DHT22;3037;51.068;13.780;2022-12-18T11:10:23;6.70;99.90
6018;DHT22;3037;51.068;13.780;2022-12-18T11:12:50;6.20;99.90
6018;DHT22;3037;51.068;13.780;2022-12-18T11:15:34;6.60;99.90
6018;DHT22;3037;51.068;13.780;2022-12-18T11:18:00;5.40;99.90
6018;DHT22;3037;51.068;13.780;2022-12-18T11:20:31;5.60;99.90
6018;DHT22;3037;51.068;13.780;2022-12-18T11:23:05;5.20;99.90
6018;DHT22;3037;51.068;13.780;2022-12-18T11:25:36;4.60;99.90
6018;DHT22;3037;51.068;13.780;2022-12-18T11:28:25;3.80;99.90
6018;DHT22;3037;51.068;13.780;2022-12-18T11:33:37;5.00;99.90
6018;DHT22;3037;51.068;13.780;2022-12-18T11:36:04;3.80;99.90
6018;DHT22;3037;51.068;13.780;2022-12-18T11:38:36;3.30;99.90
6018;DHT22;3037;51.068;13.780;2022-12-18T11:44:01;2.20;99.90
6018;DHT22;3037;51.068;13.780;2022-12-18T11:49:34;1.60;99.90
6018;DHT22;3037;51.068;13.780;2022-12-18T11:52:25;1.10;99.90
6018;DHT22;3037;51.068;13.780;2022-12-18T11:54:57;1.30;99.90
6018;DHT22;3037;51.068;13.780;2022-12-18T12:00:22;1.10;1.00
6018;DHT22;3037;51.068;13.780;2022-12-18T12:06:12;0.90;1.00
6018;DHT22;3037;51.068;13.780;2022-12-18T12:14:54;0.60;1.00
6018;DHT22;3037;51.068;13.780;2022-12-18T12:17:29;0.60;1.00
6018;DHT22;3037;51.068;13.780;2022-12-18T12:22:40;0.20;1.00
6018;DHT22;3037;51.068;13.780;2022-12-18T12:25:17;0.10;1.00
6018;DHT22;3037;51.068;13.780;2022-12-18T12:36:27;0.20;1.00
6018;DHT22;3037;51.068;13.780;2022-12-18T12:38:58;-0.10;1.00
6018;DHT22;3037;51.068;13.780;2022-12-18T12:41:31;0.10;1.00
6018;DHT22;3037;51.068;13.780;2022-12-18T12:44:26;-0.20;1.00
6018;DHT22;3037;51.068;13.780;2022-12-18T12:46:58;-0.30;1.00
6018;DHT22;3037;51.068;13.780;2022-12-18T12:49:27;-0.30;1.00
6018;DHT22;3037;51.068;13.780;2022-12-18T12:52:07;-0.60;1.00
6018;DHT22;3037;51.068;13.780;2022-12-18T12:54:36;-0.50;1.00
6018;DHT22;3037;51.068;13.780;2022-12-18T12:57:20;-0.80;1.00
6018;DHT22;3037;51.068;13.780;2022-12-18T13:00:11;-0.80;14.20
6018;DHT22;3037;51.068;13.780;2022-12-18T13:02:52;-0.90;1.00
6018;DHT22;3037;51.068;13.780;2022-12-18T13:05:30;-1.10;1.00
6018;DHT22;3037;51.068;13.780;2022-12-18T13:08:28;-1.10;68.40
6018;DHT22;3037;51.068;13.780;2022-12-18T13:10:56;-1.20;67.70
6018;DHT22;3037;51.068;13.780;2022-12-18T13:13:52;-1.10;99.90
6018;DHT22;3037;51.068;13.780;2022-12-18T13:16:20;-1.00;15.60
6018;DHT22;3037;51.068;13.780;2022-12-18T13:18:53;-1.20;1.00
6018;DHT22;3037;51.068;13.780;2022-12-18T13:21:30;-1.30;1.00
6018;DHT22;3037;51.068;13.780;2022-12-18T13:24:15;-1.20;1.00
6018;DHT22;3037;51.068;13.780;2022-12-18T13:26:41;-1.30;1.00
6018;DHT22;3037;51.068;13.780;2022-12-18T13:29:06;-1.40;1.00
6018;DHT22;3037;51.068;13.780;2022-12-18T13:34:24;-1.40;1.00
6018;DHT22;3037;51.068;13.780;2022-12-18T13:36:51;-1.50;1.00
6018;DHT22;3037;51.068;13.780;2022-12-18T13:39:24;-1.70;1.00
6018;DHT22;3037;51.068;13.780;2022-12-18T13:44:59;-1.40;1.00
6018;DHT22;3037;51.068;13.780;2022-12-18T13:47:33;-1.60;1.00
6018;DHT22;3037;51.068;13.780;2022-12-18T13:50:03;-1.70;1.00
6018;DHT22;3037;51.068;13.780;2022-12-18T13:52:36;-1.80;1.00
6018;DHT22;3037;51.068;13.780;2022-12-18T13:55:07;-1.90;1.00
6018;DHT22;3037;51.068;13.780;2022-12-18T13:57:39;-1.90;1.00
6018;DHT22;3037;51.068;13.780;2022-12-18T14:00:32;-1.90;1.00
6018;DHT22;3037;51.068;13.780;2022-12-18T14:02:58;-1.80;1.00
6018;DHT22;3037;51.068;13.780;2022-12-18T14:05:29;-1.90;1.00
6018;DHT22;3037;51.068;13.780;2022-12-18T14:08:01;-1.90;1.00
6018;DHT22;3037;51.068;13.780;2022-12-18T14:10:27;-1.90;1.00
6018;DHT22;3037;51.068;13.780;2022-12-18T14:12:53;-2.00;1.00
6018;DHT22;3037;51.068;13.780;2022-12-18T14:17:57;-2.10;1.00
6018;DHT22;3037;51.068;13.780;2022-12-18T14:20:25;-2.10;1.00
6018;DHT22;3037;51.068;13.780;2022-12-18T14:22:51;-2.30;1.00
6018;DHT22;3037;51.068;13.780;2022-12-18T14:25:28;-2.30;1.00
6018;DHT22;3037;51.068;13.780;2022-12-18T14:28:08;-2.40;1.00
6018;DHT22;3037;51.068;13.780;2022-12-18T14:30:42;-2.60;1.00
6018;DHT22;3037;51.068;13.780;2022-12-18T14:35:39;-2.80;1.00
6018;DHT22;3037;51.068;13.780;2022-12-18T14:38:26;-2.90;1.00
6018;DHT22;3037;51.068;13.780;2022-12-18T14:43:22;-3.00;1.00
6018;DHT22;3037;51.068;13.780;2022-12-18T14:45:48;-3.10;1.00
6018;DHT22;3037;51.068;13.780;2022-12-18T14:48:37;-3.10;1.00
6018;DHT22;3037;51.068;13.780;2022-12-18T14:51:24;-3.10;1.00
6018;DHT22;3037;51.068;13.780;2022-12-18T14:53:59;-3.20;1.00
6018;DHT22;3037;51.068;13.780;2022-12-18T14:56:34;-3.10;1.00
6018;DHT22;3037;51.068;13.780;2022-12-18T14:59:05;-3.30;1.00
6018;DHT22;3037;51.068;13.780;2022-12-18T15:01:39;-3.30;1.00
6018;DHT22;3037;51.068;13.780;2022-12-18T15:04:35;-3.30;1.00
6018;DHT22;3037;51.068;13.780;2022-12-18T15:07:05;-3.30;1.00
6018;DHT22;3037;51.068;13.780;2022-12-18T15:09:31;-3.50;99.90
6018;DHT22;3037;51.068;13.780;2022-12-18T15:12:01;-3.50;99.90
6018;DHT22;3037;51.068;13.780;2022-12-18T15:16:55;-3.60;99.90
6018;DHT22;3037;51.068;13.780;2022-12-18T15:19:22;-3.60;99.90
6018;DHT22;3037;51.068;13.780;2022-12-18T15:21:50;-3.60;99.90
6018;DHT22;3037;51.068;13.780;2022-12-18T15:24:25;-3.60;99.90
6018;DHT22;3037;51.068;13.780;2022-12-18T15:26:51;-3.60;99.90
6018;DHT22;3037;51.068;13.780;2022-12-18T15:29:22;-3.70;99.90
6018;DHT22;3037;51.068;13.780;2022-12-18T15:31:59;-3.70;99.90
6018;DHT22;3037;51.068;13.780;2022-12-18T15:34:25;-3.70;99.90
6018;DHT22;3037;51.068;13.780;2022-12-18T15:36:51;-3.70;99.90
6018;DHT22;3037;51.068;13.780;2022-12-18T15:39:17;-3.80;99.90
6018;DHT22;3037;51.068;13.780;2022-12-18T15:41:42;-3.70;99.90
6018;DHT22;3037;51.068;13.780;2022-12-18T15:44:28;-3.80;99.90
6018;DHT22;3037;51.068;13.780;2022-12-18T15:46:54;-3.70;99.90
6018;DHT22;3037;51.068;13.780;2022-12-18T15:49:19;-3.80;99.90
6018;DHT22;3037;51.068;13.780;2022-12-18T15:51:52;-3.70;99.90
6018;DHT22;3037;51.068;13.780;2022-12-18T15:54:18;-3.80;90.90
6018;DHT22;3037;51.068;13.780;2022-12-18T15:57:04;-3.80;1.00
6018;DHT22;3037;51.068;13.780;2022-12-18T15:59:48;-3.80;99.90
6018;DHT22;3037;51.068;13.780;2022-12-18T16:02:16;-3.80;99.90
6018;DHT22;3037;51.068;13.780;2022-12-18T16:04:43;-3.90;99.90
6018;DHT22;3037;51.068;13.780;2022-12-18T16:07:09;-3.90;99.90
6018;DHT22;3037;51.068;13.780;2022-12-18T16:09:35;-3.80;99.90
6018;DHT22;3037;51.068;13.780;2022-12-18T16:12:01;-3.30;99.90
6018;DHT22;3037;51.068;13.780;2022-12-18T16:14:29;-3.90;99.90
6018;DHT22;3037;51.068;13.780;2022-12-18T16:17:00;-3.90;99.90
6018;DHT22;3037;51.068;13.780;2022-12-18T16:19:26;-3.90;99.90
6018;DHT22;3037;51.068;13.780;2022-12-18T16:21:54;-3.80;99.90
6018;DHT22;3037;51.068;13.780;2022-12-18T16:24:23;-3.80;99.90
6018;DHT22;3037;51.068;13.780;2022-12-18T16:26:50;-3.60;99.90
6018;DHT22;3037;51.068;13.780;2022-12-18T16:29:22;-3.90;99.90
6018;DHT22;3037;51.068;13.780;2022-12-18T16:31:58;-3.80;99.90
6018;DHT22;3037;51.068;13.780;2022-12-18T16:34:29;-3.90;1.00
6018;DHT22;3037;51.068;13.780;2022-12-18T16:37:01;-3.80;99.90
6018;DHT22;3037;51.068;13.780;2022-12-18T16:39:27;-3.80;99.90
6018;DHT22;3037;51.068;13.780;2022-12-18T16:41:53;-3.80;99.90
6018;DHT22;3037;51.068;13.780;2022-12-18T16:44:19;-3.80;99.90
6018;DHT22;3037;51.068;13.780;2022-12-18T16:46:45;-3.80;99.90
6018;DHT22;3037;51.068;13.780;2022-12-18T16:49:15;-3.80;99.90
6018;DHT22;3037;51.068;13.780;2022-12-18T16:51:41;-3.70;99.90
6018;DHT22;3037;51.068;13.780;2022-12-18T16:54:07;-3.80;99.90
6018;DHT22;3037;51.068;13.780;2022-12-18T16:56:32;-3.70;99.90
6018;DHT22;3037;51.068;13.780;2022-12-18T16:59:00;-3.80;99.90
6018;DHT22;3037;51.068;13.780;2022-12-18T17:01:28;-3.70;99.90
6018;DHT22;3037;51.068;13.780;2022-12-18T17:04:00;-3.60;99.90
6018;DHT22;3037;51.068;13.780;2022-12-18T17:06:27;-3.60;99.90
6018;DHT22;3037;51.068;13.780;2022-12-18T17:09:02;-3.70;99.90
6018;DHT22;3037;51.068;13.780;2022-12-18T17:11:30;-3.60;99.90
6018;DHT22;3037;51.068;13.780;2022-12-18T17:13:56;-3.60;99.90
6018;DHT22;3037;51.068;13.780;2022-12-18T17:16:23;-3.40;99.90
6018;DHT22;3037;51.068;13.780;2022-12-18T17:18:49;-3.60;20.40
6018;DHT22;3037;51.068;13.780;2022-12-18T17:21:15;-3.70;89.30
6018;DHT22;3037;51.068;13.780;2022-12-18T17:23:41;-3.40;49.90
6018;DHT22;3037;51.068;13.780;2022-12-18T17:26:08;-3.70;26.30
6018;DHT22;3037;51.068;13.780;2022-12-18T17:28:35;-3.50;1.00
6018;DHT22;3037;51.068;13.780;2022-12-18T17:31:02;-3.50;1.00
6018;DHT22;3037;51.068;13.780;2022-12-18T17:33:34;-3.50;1.00
6018;DHT22;3037;51.068;13.780;2022-12-18T17:36:00;-3.60;99.90